sensor_id;sensor_type;location;lat;lon;timestamp;P1;P2;P0
76101;PMS7003;64830;46.910;6.354;2022-11-03T00:00:55;4.50;4.25;2.00
76101;PMS7003;64830;46.910;6.354;2022-11-03T00:03:20;5.25;3.00;2.00
76101;PMS7003;64830;46.910;6.354;2022-11-03T00:05:46;4.50;4.50;2.00
76101;PMS7003;64830;46.910;6.354;2022-11-03T00:08:33;3.75;2.00;2.00
76101;PMS7003;64830;46.910;6.354;2022-11-03T00:11:10;3.75;2.00;1.75
76101;PMS7003;64830;46.910;6.354;2022-11-03T00:13:38;4.00;3.75;2.00
76101;PMS7003;64830;46.910;6.354;2022-11-03T00:16:05;2.75;2.75;2.00
76101;PMS7003;64830;46.910;6.354;2022-11-03T00:18:32;4.00;4.00;1.75
76101;PMS7003;64830;46.910;6.354;2022-11-03T00:21:02;4.50;4.50;2.00
76101;PMS7003;64830;46.910;6.354;2022-11-03T00:23:30;4.50;4.00;2.50
76101;PMS7003;64830;46.910;6.354;2022-11-03T00:26:07;4.00;2.00;2.00
76101;PMS7003;64830;46.910;6.354;2022-11-03T00:28:35;2.00;2.00;1.00
76101;PMS7003;64830;46.910;6.354;2022-11-03T00:31:05;5.00;2.00;2.00
76101;PMS7003;64830;46.910;6.354;2022-11-03T00:33:32;4.00;4.00;2.00
76101;PMS7003;64830;46.910;6.354;2022-11-03T00:36:00;6.00;4.75;3.25
76101;PMS7003;64830;46.910;6.354;2022-11-03T00:38:26;3.25;3.25;2.00
76101;PMS7003;64830;46.910;6.354;2022-11-03T00:40:58;2.00;2.00;1.50
76101;PMS7003;64830;46.910;6.354;2022-11-03T00:43:25;2.50;2.50;2.00
76101;PMS7003;64830;46.910;6.354;2022-11-03T00:45:52;4.00;3.50;2.00
76101;PMS7003;64830;46.910;6.354;2022-11-03T00:48:18;2.00;2.00;1.50
76101;PMS7003;64830;46.910;6.354;2022-11-03T00:50:53;2.00;1.75;1.00
76101;PMS7003;64830;46.910;6.354;2022-11-03T00:53:19;3.25;3.25;3.25
76101;PMS7003;64830;46.910;6.354;2022-11-03T00:55:48;3.50;3.50;2.00
76101;PMS7003;64830;46.910;6.354;2022-11-03T00:58:14;4.75;4.75;2.00
76101;PMS7003;64830;46.910;6.354;2022-11-03T01:00:39;3.00;3.00;2.00
76101;PMS7003;64830;46.910;6.354;2022-11-03T01:03:05;3.75;3.00;2.00
76101;PMS7003;64830;46.910;6.354;2022-11-03T01:05:30;3.00;3.00;1.75
76101;PMS7003;64830;46.910;6.354;2022-11-03T01:08:14;2.00;2.00;1.75
76101;PMS7003;64830;46.910;6.354;2022-11-03T01:10:40;4.25;2.50;2.00
76101;PMS7003;64830;46.910;6.354;2022-11-03T01:13:25;4.25;4.25;1.50
76101;PMS7003;64830;46.910;6.354;2022-11-03T01:15:50;4.00;2.00;2.00
76101;PMS7003;64830;46.910;6.354;2022-11-03T01:18:16;1.00;1.00;1.00
76101;PMS7003;64830;46.910;6.354;2022-11-03T01:20:41;4.25;4.25;4.00
76101;PMS7003;64830;46.910;6.354;2022-11-03T01:23:07;4.00;1.75;1.00
76101;PMS7003;64830;46.910;6.354;2022-11-03T01:25:34;3.75;3.75;1.50
76101;PMS7003;64830;46.910;6.354;2022-11-03T01:28:01;3.75;1.75;1.50
76101;PMS7003;64830;46.910;6.354;2022-11-03T01:30:26;4.50;1.00;1.00
76101;PMS7003;64830;46.910;6.354;2022-11-03T01:32:52;3.75;2.00;1.00
76101;PMS7003;64830;46.910;6.354;2022-11-03T01:35:17;1.00;1.00;1.00
76101;PMS7003;64830;46.910;6.354;2022-11-03T01:37:42;2.00;2.00;2.00
76101;PMS7003;64830;46.910;6.354;2022-11-03T01:40:08;2.50;1.00;0.50
76101;PMS7003;64830;46.910;6.354;2022-11-03T01:42:34;4.25;4.25;1.00
76101;PMS7003;64830;46.910;6.354;2022-11-03T01:45:00;2.75;2.25;1.50
76101;PMS7003;64830;46.910;6.354;2022-11-03T01:52:30;2.50;2.50;2.00
76101;PMS7003;64830;46.910;6.354;2022-11-03T01:55:02;4.00;2.00;2.00
76101;PMS7003;64830;46.910;6.354;2022-11-03T01:57:53;1.25;1.25;1.00
76101;PMS7003;64830;46.910;6.354;2022-11-03T02:00:19;1.25;1.00;1.00
76101;PMS7003;64830;46.910;6.354;2022-11-03T02:02:45;1.50;1.50;1.00
76101;PMS7003;64830;46.910;6.354;2022-11-03T02:05:12;1.25;1.25;1.00
76101;PMS7003;64830;46.910;6.354;2022-11-03T02:07:43;2.00;2.00;1.75
76101;PMS7003;64830;46.910;6.354;2022-11-03T02:10:15;2.50;2.50;1.00
76101;PMS7003;64830;46.910;6.354;2022-11-03T02:12:41;1.75;1.00;1.00
76101;PMS7003;64830;46.910;6.354;2022-11-03T02:15:08;2.00;2.00;1.00
76101;PMS7003;64830;46.910;6.354;2022-11-03T02:17:36;4.00;4.00;2.00
76101;PMS7003;64830;46.910;6.354;2022-11-03T02:27:52;1.00;1.00;1.00
76101;PMS7003;64830;46.910;6.354;2022-11-03T02:30:18;2.00;2.00;1.00
76101;PMS7003;64830;46.910;6.354;2022-11-03T02:33:07;4.75;4.00;1.50
76101;PMS7003;64830;46.910;6.354;2022-11-03T02:35:50;1.00;1.00;1.00
76101;PMS7003;64830;46.910;6.354;2022-11-03T02:38:20;2.00;2.00;2.00
76101;PMS7003;64830;46.910;6.354;2022-11-03T02:40:53;2.50;2.00;1.00
76101;PMS7003;64830;46.910;6.354;2022-11-03T02:43:23;5.25;4.50;1.00
76101;PMS7003;64830;46.910;6.354;2022-11-03T02:45:50;2.00;2.00;1.00
76101;PMS7003;64830;46.910;6.354;2022-11-03T02:48:17;2.00;2.00;1.75
76101;PMS7003;64830;46.910;6.354;2022-11-03T02:50:43;2.50;2.00;1.50
76101;PMS7003;64830;46.910;6.354;2022-11-03T02:53:12;2.00;2.00;1.00
76101;PMS7003;64830;46.910;6.354;2022-11-03T02:55:40;4.00;4.00;1.00
76101;PMS7003;64830;46.910;6.354;2022-11-03T03:00:34;4.00;4.00;1.00
76101;PMS7003;64830;46.910;6.354;2022-11-03T03:03:09;1.00;1.00;1.00
76101;PMS7003;64830;46.910;6.354;2022-11-03T03:05:40;4.75;2.00;0.75
76101;PMS7003;64830;46.910;6.354;2022-11-03T03:08:09;4.00;2.00;1.50
76101;PMS7003;64830;46.910;6.354;2022-11-03T03:10:37;3.25;3.00;2.00
76101;PMS7003;64830;46.910;6.354;2022-11-03T03:13:09;1.75;1.75;1.00
76101;PMS7003;64830;46.910;6.354;2022-11-03T03:15:48;2.00;2.00;2.00
76101;PMS7003;64830;46.910;6.354;2022-11-03T03:23:25;2.25;2.00;1.00
76101;PMS7003;64830;46.910;6.354;2022-11-03T03:25:56;1.50;1.50;1.00
76101;PMS7003;64830;46.910;6.354;2022-11-03T03:31:05;4.75;3.25;2.50
76101;PMS7003;64830;46.910;6.354;2022-11-03T03:33:34;1.00;1.00;0.50
76101;PMS7003;64830;46.910;6.354;2022-11-03T03:36:01;2.25;2.25;2.00
76101;PMS7003;64830;46.910;6.354;2022-11-03T03:38:32;1.00;1.00;0.00
76101;PMS7003;64830;46.910;6.354;2022-11-03T03:41:01;5.00;2.75;2.00
76101;PMS7003;64830;46.910;6.354;2022-11-03T03:43:28;4.75;4.75;3.75
76101;PMS7003;64830;46.910;6.354;2022-11-03T03:45:57;5.00;2.50;2.00
76101;PMS7003;64830;46.910;6.354;2022-11-03T03:48:28;4.00;2.00;2.00
76101;PMS7003;64830;46.910;6.354;2022-11-03T03:50:53;4.00;4.00;4.00
76101;PMS7003;64830;46.910;6.354;2022-11-03T03:53:19;4.75;2.00;1.00
76101;PMS7003;64830;46.910;6.354;2022-11-03T03:55:45;3.00;2.00;1.75
76101;PMS7003;64830;46.910;6.354;2022-11-03T03:58:13;2.00;1.25;1.00
76101;PMS7003;64830;46.910;6.354;2022-11-03T04:00:40;5.00;4.00;1.25
76101;PMS7003;64830;46.910;6.354;2022-11-03T04:03:07;2.00;2.00;2.00
76101;PMS7003;64830;46.910;6.354;2022-11-03T04:05:39;2.00;2.00;1.00
76101;PMS7003;64830;46.910;6.354;2022-11-03T04:08:04;4.75;3.50;3.50
76101;PMS7003;64830;46.910;6.354;2022-11-03T04:10:30;2.50;1.75;1.25
76101;PMS7003;64830;46.910;6.354;2022-11-03T04:12:55;2.50;2.50;1.50
76101;PMS7003;64830;46.910;6.354;2022-11-03T04:15:39;2.50;2.50;1.00
76101;PMS7003;64830;46.910;6.354;2022-11-03T04:18:07;1.00;1.00;1.00
76101;PMS7003;64830;46.910;6.354;2022-11-03T04:20:52;2.75;2.00;2.00
76101;PMS7003;64830;46.910;6.354;2022-11-03T04:23:36;4.00;1.75;1.50
76101;PMS7003;64830;46.910;6.354;2022-11-03T04:26:01;5.25;5.25;4.50
76101;PMS7003;64830;46.910;6.354;2022-11-03T04:28:30;5.25;2.00;2.00
76101;PMS7003;64830;46.910;6.354;2022-11-03T04:30:56;3.50;3.50;2.00
76101;PMS7003;64830;46.910;6.354;2022-11-03T04:33:23;4.75;4.25;2.00
76101;PMS7003;64830;46.910;6.354;2022-11-03T04:35:48;3.25;3.25;1.25
76101;PMS7003;64830;46.910;6.354;2022-11-03T04:40:43;6.00;4.00;2.00
76101;PMS7003;64830;46.910;6.354;2022-11-03T04:43:11;5.00;5.00;2.00
76101;PMS7003;64830;46.910;6.354;2022-11-03T04:45:38;7.25;4.75;3.25
76101;PMS7003;64830;46.910;6.354;2022-11-03T04:48:10;5.00;3.00;2.00
76101;PMS7003;64830;46.910;6.354;2022-11-03T04:50:38;5.00;4.25;2.00
76101;PMS7003;64830;46.910;6.354;2022-11-03T04:53:08;2.00;1.00;1.00
76101;PMS7003;64830;46.910;6.354;2022-11-03T04:55:36;2.25;2.25;2.00
76101;PMS7003;64830;46.910;6.354;2022-11-03T04:58:09;4.25;3.25;2.00
76101;PMS7003;64830;46.910;6.354;2022-11-03T05:00:41;3.00;3.00;2.00
76101;PMS7003;64830;46.910;6.354;2022-11-03T05:03:08;9.00;3.25;2.00
76101;PMS7003;64830;46.910;6.354;2022-11-03T05:05:39;4.50;4.50;2.50
76101;PMS7003;64830;46.910;6.354;2022-11-03T05:08:04;6.25;2.50;2.00
76101;PMS7003;64830;46.910;6.354;2022-11-03T05:10:33;2.75;2.75;2.00
76101;PMS7003;64830;46.910;6.354;2022-11-03T05:12:58;1.50;1.50;1.00
76101;PMS7003;64830;46.910;6.354;2022-11-03T05:15:29;3.25;3.25;2.00
76101;PMS7003;64830;46.910;6.354;2022-11-03T05:17:56;3.00;2.75;2.00
76101;PMS7003;64830;46.910;6.354;2022-11-03T05:20:30;1.00;1.00;0.75
76101;PMS7003;64830;46.910;6.354;2022-11-03T05:23:00;2.50;2.00;1.00
76101;PMS7003;64830;46.910;6.354;2022-11-03T05:28:12;2.25;2.00;1.00
76101;PMS7003;64830;46.910;6.354;2022-11-03T05:30:44;2.75;2.75;2.00
76101;PMS7003;64830;46.910;6.354;2022-11-03T05:33:15;3.00;3.00;1.75
76101;PMS7003;64830;46.910;6.354;2022-11-03T05:36:06;1.00;1.00;1.00
76101;PMS7003;64830;46.910;6.354;2022-11-03T05:38:37;6.25;2.00;1.00
76101;PMS7003;64830;46.910;6.354;2022-11-03T05:41:04;2.25;2.25;1.75
76101;PMS7003;64830;46.910;6.354;2022-11-03T05:43:37;24.75;23.25;16.25
76101;PMS7003;64830;46.910;6.354;2022-11-03T05:46:03;37.25;34.25;25.00
76101;PMS7003;64830;46.910;6.354;2022-11-03T05:48:35;17.25;13.75;10.00
76101;PMS7003;64830;46.910;6.354;2022-11-03T05:54:04;10.75;9.75;7.00
76101;PMS7003;64830;46.910;6.354;2022-11-03T05:56:35;5.00;5.00;3.00
76101;PMS7003;64830;46.910;6.354;2022-11-03T05:59:00;3.00;3.00;2.00
76101;PMS7003;64830;46.910;6.354;2022-11-03T06:01:32;2.75;2.00;1.00
76101;PMS7003;64830;46.910;6.354;2022-11-03T06:04:23;2.50;2.50;1.25
76101;PMS7003;64830;46.910;6.354;2022-11-03T06:06:53;5.00;2.00;1.00
76101;PMS7003;64830;46.910;6.354;2022-11-03T06:09:23;3.00;3.00;2.00
76101;PMS7003;64830;46.910;6.354;2022-11-03T06:11:50;5.00;2.00;1.00
76101;PMS7003;64830;46.910;6.354;2022-11-03T06:14:21;4.00;3.00;2.00
76101;PMS7003;64830;46.910;6.354;2022-11-03T06:16:55;2.25;2.00;1.00
76101;PMS7003;64830;46.910;6.354;2022-11-03T06:19:27;2.75;2.75;2.00
76101;PMS7003;64830;46.910;6.354;2022-11-03T06:22:01;2.00;2.00;1.00
76101;PMS7003;64830;46.910;6.354;2022-11-03T06:24:35;3.00;2.50;1.50
76101;PMS7003;64830;46.910;6.354;2022-11-03T06:27:01;2.00;2.00;1.00
76101;PMS7003;64830;46.910;6.354;2022-11-03T06:29:26;3.00;3.00;1.00
76101;PMS7003;64830;46.910;6.354;2022-11-03T06:31:56;4.50;2.50;1.25
76101;PMS7003;64830;46.910;6.354;2022-11-03T06:36:50;3.50;3.50;2.00
76101;PMS7003;64830;46.910;6.354;2022-11-03T06:39:20;2.75;2.75;2.75
76101;PMS7003;64830;46.910;6.354;2022-11-03T06:41:50;5.25;5.00;2.00
76101;PMS7003;64830;46.910;6.354;2022-11-03T06:44:23;3.75;2.75;2.00
76101;PMS7003;64830;46.910;6.354;2022-11-03T06:46:50;2.75;2.75;2.00
76101;PMS7003;64830;46.910;6.354;2022-11-03T06:49:28;2.50;2.50;2.00
76101;PMS7003;64830;46.910;6.354;2022-11-03T06:52:06;2.25;2.25;1.00
76101;PMS7003;64830;46.910;6.354;2022-11-03T06:54:53;2.00;2.00;2.00
76101;PMS7003;64830;46.910;6.354;2022-11-03T06:57:34;2.00;1.75;1.00
76101;PMS7003;64830;46.910;6.354;2022-11-03T07:00:38;2.25;2.00;1.00
76101;PMS7003;64830;46.910;6.354;2022-11-03T07:05:49;1.50;1.50;1.00
76101;PMS7003;64830;46.910;6.354;2022-11-03T07:08:21;5.00;3.00;1.50
76101;PMS7003;64830;46.910;6.354;2022-11-03T07:13:43;2.75;2.75;2.00
76101;PMS7003;64830;46.910;6.354;2022-11-03T07:16:23;2.00;2.00;1.00
76101;PMS7003;64830;46.910;6.354;2022-11-03T07:18:58;1.75;1.00;1.00
76101;PMS7003;64830;46.910;6.354;2022-11-03T07:23:53;1.00;1.00;1.00
76101;PMS7003;64830;46.910;6.354;2022-11-03T07:26:20;2.25;1.75;1.00
76101;PMS7003;64830;46.910;6.354;2022-11-03T07:28:45;2.00;2.00;2.00
76101;PMS7003;64830;46.910;6.354;2022-11-03T07:31:15;2.00;1.50;1.00
76101;PMS7003;64830;46.910;6.354;2022-11-03T07:33:44;3.75;2.75;1.50
76101;PMS7003;64830;46.910;6.354;2022-11-03T07:36:12;2.75;2.00;1.00
76101;PMS7003;64830;46.910;6.354;2022-11-03T07:38:42;5.75;5.75;3.00
76101;PMS7003;64830;46.910;6.354;2022-11-03T07:41:11;2.50;1.75;1.75
76101;PMS7003;64830;46.910;6.354;2022-11-03T07:43:42;5.75;2.00;2.00
76101;PMS7003;64830;46.910;6.354;2022-11-03T07:46:22;2.25;2.25;2.00
76101;PMS7003;64830;46.910;6.354;2022-11-03T07:53:55;5.50;1.00;1.00
76101;PMS7003;64830;46.910;6.354;2022-11-03T07:56:26;1.25;1.25;0.75
76101;PMS7003;64830;46.910;6.354;2022-11-03T07:58:58;3.00;2.00;1.00
76101;PMS7003;64830;46.910;6.354;2022-11-03T08:01:34;2.75;2.75;2.00
76101;PMS7003;64830;46.910;6.354;2022-11-03T08:06:55;2.50;2.25;2.00
76101;PMS7003;64830;46.910;6.354;2022-11-03T08:09:21;1.00;1.00;0.00
76101;PMS7003;64830;46.910;6.354;2022-11-03T08:11:47;3.00;2.50;1.00
76101;PMS7003;64830;46.910;6.354;2022-11-03T08:14:13;1.00;1.00;0.00
76101;PMS7003;64830;46.910;6.354;2022-11-03T08:16:38;2.00;2.00;1.00
76101;PMS7003;64830;46.910;6.354;2022-11-03T08:19:04;2.25;2.25;1.00
76101;PMS7003;64830;46.910;6.354;2022-11-03T08:21:30;1.00;1.00;1.00
76101;PMS7003;64830;46.910;6.354;2022-11-03T08:23:55;1.00;1.00;1.00
76101;PMS7003;64830;46.910;6.354;2022-11-03T08:26:21;2.00;2.00;1.00
76101;PMS7003;64830;46.910;6.354;2022-11-03T08:28:47;2.50;2.50;1.50
76101;PMS7003;64830;46.910;6.354;2022-11-03T08:31:12;2.00;2.00;1.00
76101;PMS7003;64830;46.910;6.354;2022-11-03T08:33:38;0.75;0.75;0.50
76101;PMS7003;64830;46.910;6.354;2022-11-03T08:36:04;3.75;1.50;1.00
76101;PMS7003;64830;46.910;6.354;2022-11-03T08:38:29;2.25;1.50;1.00
76101;PMS7003;64830;46.910;6.354;2022-11-03T08:40:55;1.25;1.25;0.25
76101;PMS7003;64830;46.910;6.354;2022-11-03T08:43:22;2.00;2.00;1.00
76101;PMS7003;64830;46.910;6.354;2022-11-03T08:45:48;1.75;1.75;1.50
76101;PMS7003;64830;46.910;6.354;2022-11-03T08:48:17;0.00;0.00;0.00
76101;PMS7003;64830;46.910;6.354;2022-11-03T08:50:44;1.00;1.00;0.75
76101;PMS7003;64830;46.910;6.354;2022-11-03T08:53:10;2.75;1.00;0.50
76101;PMS7003;64830;46.910;6.354;2022-11-03T08:55:35;1.25;1.25;1.00
76101;PMS7003;64830;46.910;6.354;2022-11-03T08:58:01;3.00;2.00;1.75
76101;PMS7003;64830;46.910;6.354;2022-11-03T09:00:26;1.00;1.00;1.00
76101;PMS7003;64830;46.910;6.354;2022-11-03T09:02:51;1.25;1.25;1.00
76101;PMS7003;64830;46.910;6.354;2022-11-03T09:05:17;2.00;2.00;1.25
76101;PMS7003;64830;46.910;6.354;2022-11-03T09:07:42;2.00;0.00;0.00
76101;PMS7003;64830;46.910;6.354;2022-11-03T09:10:08;3.00;1.75;1.00
76101;PMS7003;64830;46.910;6.354;2022-11-03T09:12:37;3.00;1.50;1.50
76101;PMS7003;64830;46.910;6.354;2022-11-03T09:15:03;3.00;1.50;1.00
76101;PMS7003;64830;46.910;6.354;2022-11-03T09:17:29;1.00;1.00;1.00
76101;PMS7003;64830;46.910;6.354;2022-11-03T09:19:55;1.25;1.25;1.00
76101;PMS7003;64830;46.910;6.354;2022-11-03T09:22:20;2.00;1.25;1.00
76101;PMS7003;64830;46.910;6.354;2022-11-03T09:24:46;1.25;1.25;1.00
76101;PMS7003;64830;46.910;6.354;2022-11-03T09:27:12;1.00;1.00;1.00
76101;PMS7003;64830;46.910;6.354;2022-11-03T09:29:37;2.00;1.75;1.25
76101;PMS7003;64830;46.910;6.354;2022-11-03T09:32:03;2.00;1.75;1.00
76101;PMS7003;64830;46.910;6.354;2022-11-03T09:34:28;3.25;2.75;1.50
76101;PMS7003;64830;46.910;6.354;2022-11-03T09:36:54;2.00;2.00;1.00
76101;PMS7003;64830;46.910;6.354;2022-11-03T09:39:20;2.00;2.00;1.00
76101;PMS7003;64830;46.910;6.354;2022-11-03T09:41:45;1.75;1.00;1.00
76101;PMS7003;64830;46.910;6.354;2022-11-03T09:44:11;2.75;1.00;1.00
76101;PMS7003;64830;46.910;6.354;2022-11-03T09:46:36;2.50;0.00;0.00
76101;PMS7003;64830;46.910;6.354;2022-11-03T09:49:02;1.75;1.00;1.00
76101;PMS7003;64830;46.910;6.354;2022-11-03T09:51:29;1.00;1.00;1.00
76101;PMS7003;64830;46.910;6.354;2022-11-03T09:53:56;2.00;1.75;1.75
76101;PMS7003;64830;46.910;6.354;2022-11-03T09:56:26;1.00;1.00;1.00
76101;PMS7003;64830;46.910;6.354;2022-11-03T09:58:51;1.00;0.00;0.00
76101;PMS7003;64830;46.910;6.354;2022-11-03T10:01:17;1.50;1.50;1.00
76101;PMS7003;64830;46.910;6.354;2022-11-03T10:03:43;2.00;1.00;1.00
76101;PMS7003;64830;46.910;6.354;2022-11-03T10:06:08;2.00;1.00;1.00
76101;PMS7003;64830;46.910;6.354;2022-11-03T10:08:34;1.00;1.00;1.00
76101;PMS7003;64830;46.910;6.354;2022-11-03T10:11:01;2.75;2.50;2.00
76101;PMS7003;64830;46.910;6.354;2022-11-03T10:13:32;2.75;1.00;1.00
76101;PMS7003;64830;46.910;6.354;2022-11-03T10:16:11;2.00;2.00;1.00
76101;PMS7003;64830;46.910;6.354;2022-11-03T10:18:39;1.75;1.75;1.75
76101;PMS7003;64830;46.910;6.354;2022-11-03T10:21:07;2.75;1.00;1.00
76101;PMS7003;64830;46.910;6.354;2022-11-03T10:23:41;1.00;1.00;1.00
76101;PMS7003;64830;46.910;6.354;2022-11-03T10:26:12;1.50;1.50;1.00
76101;PMS7003;64830;46.910;6.354;2022-11-03T10:29:04;1.50;1.50;1.00
76101;PMS7003;64830;46.910;6.354;2022-11-03T10:31:37;2.00;2.00;2.00
76101;PMS7003;64830;46.910;6.354;2022-11-03T10:34:04;2.00;1.75;1.50
76101;PMS7003;64830;46.910;6.354;2022-11-03T10:36:31;2.50;1.50;1.00
76101;PMS7003;64830;46.910;6.354;2022-11-03T10:38:57;1.00;1.00;1.00
76101;PMS7003;64830;46.910;6.354;2022-11-03T10:41:29;3.50;2.00;2.00
76101;PMS7003;64830;46.910;6.354;2022-11-03T10:46:28;3.00;2.00;1.00
76101;PMS7003;64830;46.910;6.354;2022-11-03T10:49:01;4.00;2.00;1.75
76101;PMS7003;64830;46.910;6.354;2022-11-03T10:51:26;4.25;3.75;3.00
76101;PMS7003;64830;46.910;6.354;2022-11-03T10:53:53;3.00;3.00;1.00
76101;PMS7003;64830;46.910;6.354;2022-11-03T10:56:19;3.00;3.00;2.25
76101;PMS7003;64830;46.910;6.354;2022-11-03T10:58:44;4.00;2.25;1.75
76101;PMS7003;64830;46.910;6.354;2022-11-03T11:01:10;5.50;3.25;2.50
76101;PMS7003;64830;46.910;6.354;2022-11-03T11:03:37;3.00;2.25;2.00
76101;PMS7003;64830;46.910;6.354;2022-11-03T11:06:16;10.00;9.75;5.50
76101;PMS7003;64830;46.910;6.354;2022-11-03T11:08:53;3.25;3.25;3.00
76101;PMS7003;64830;46.910;6.354;2022-11-03T11:11:23;4.00;4.00;2.50
76101;PMS7003;64830;46.910;6.354;2022-11-03T11:16:56;3.25;3.25;3.00
76101;PMS7003;64830;46.910;6.354;2022-11-03T11:19:23;4.25;3.75;3.00
76101;PMS7003;64830;46.910;6.354;2022-11-03T11:30:00;2.25;2.00;1.75
76101;PMS7003;64830;46.910;6.354;2022-11-03T11:35:06;4.00;3.00;2.75
76101;PMS7003;64830;46.910;6.354;2022-11-03T11:37:33;3.50;3.50;2.25
76101;PMS7003;64830;46.910;6.354;2022-11-03T11:40:00;2.00;2.00;2.00
76101;PMS7003;64830;46.910;6.354;2022-11-03T11:42:27;2.75;2.75;2.50
76101;PMS7003;64830;46.910;6.354;2022-11-03T11:44:54;3.00;3.00;2.00
76101;PMS7003;64830;46.910;6.354;2022-11-03T11:47:31;3.25;3.00;3.00
76101;PMS7003;64830;46.910;6.354;2022-11-03T11:52:46;4.00;4.00;3.00
76101;PMS7003;64830;46.910;6.354;2022-11-03T11:55:44;3.25;3.00;2.50
76101;PMS7003;64830;46.910;6.354;2022-11-03T11:58:16;2.75;2.75;2.50
76101;PMS7003;64830;46.910;6.354;2022-11-03T12:00:52;2.00;2.00;1.00
76101;PMS7003;64830;46.910;6.354;2022-11-03T12:03:21;2.00;2.00;2.00
76101;PMS7003;64830;46.910;6.354;2022-11-03T12:05:50;3.00;3.00;2.00
76101;PMS7003;64830;46.910;6.354;2022-11-03T12:08:16;3.00;3.00;2.00
76101;PMS7003;64830;46.910;6.354;2022-11-03T12:10:50;4.25;2.50;2.00
76101;PMS7003;64830;46.910;6.354;2022-11-03T12:16:29;4.00;2.00;2.00
76101;PMS7003;64830;46.910;6.354;2022-11-03T12:21:59;2.25;2.25;2.25
76101;PMS7003;64830;46.910;6.354;2022-11-03T12:27:00;2.00;2.00;1.75
76101;PMS7003;64830;46.910;6.354;2022-11-03T12:29:27;2.00;2.00;2.00
76101;PMS7003;64830;46.910;6.354;2022-11-03T12:31:52;2.00;1.75;1.00
76101;PMS7003;64830;46.910;6.354;2022-11-03T12:34:18;3.00;3.00;2.00
76101;PMS7003;64830;46.910;6.354;2022-11-03T12:36:43;1.75;1.75;1.25
76101;PMS7003;64830;46.910;6.354;2022-11-03T12:39:10;2.00;2.00;1.25
76101;PMS7003;64830;46.910;6.354;2022-11-03T12:41:35;2.50;2.50;2.00
76101;PMS7003;64830;46.910;6.354;2022-11-03T12:44:01;3.75;3.00;2.75
76101;PMS7003;64830;46.910;6.354;2022-11-03T12:46:27;4.75;2.75;2.00
76101;PMS7003;64830;46.910;6.354;2022-11-03T12:48:52;3.50;3.50;3.00
76101;PMS7003;64830;46.910;6.354;2022-11-03T12:51:18;4.00;3.00;2.00
76101;PMS7003;64830;46.910;6.354;2022-11-03T12:53:46;3.00;3.00;2.00
76101;PMS7003;64830;46.910;6.354;2022-11-03T12:56:13;2.50;2.50;2.00
76101;PMS7003;64830;46.910;6.354;2022-11-03T12:58:39;2.50;2.00;2.00
76101;PMS7003;64830;46.910;6.354;2022-11-03T13:01:05;2.75;2.00;1.75
76101;PMS7003;64830;46.910;6.354;2022-11-03T13:03:31;3.00;3.00;2.00
76101;PMS7003;64830;46.910;6.354;2022-11-03T13:05:58;3.00;2.25;1.75
76101;PMS7003;64830;46.910;6.354;2022-11-03T13:08:24;2.50;2.50;1.75
76101;PMS7003;64830;46.910;6.354;2022-11-03T13:10:50;1.00;1.00;0.00
76101;PMS7003;64830;46.910;6.354;2022-11-03T13:13:16;3.00;3.00;2.25
76101;PMS7003;64830;46.910;6.354;2022-11-03T13:15:42;2.50;2.00;2.00
76101;PMS7003;64830;46.910;6.354;2022-11-03T13:18:07;3.00;2.25;2.00
76101;PMS7003;64830;46.910;6.354;2022-11-03T13:20:32;3.50;2.00;1.75
76101;PMS7003;64830;46.910;6.354;2022-11-03T13:22:58;2.00;2.00;1.00
76101;PMS7003;64830;46.910;6.354;2022-11-03T13:25:23;1.75;1.75;1.00
76101;PMS7003;64830;46.910;6.354;2022-11-03T13:27:49;3.75;3.75;3.00
76101;PMS7003;64830;46.910;6.354;2022-11-03T13:30:18;3.75;2.00;1.00
76101;PMS7003;64830;46.910;6.354;2022-11-03T13:32:44;2.75;2.75;1.75
76101;PMS7003;64830;46.910;6.354;2022-11-03T13:35:10;3.00;3.00;2.75
76101;PMS7003;64830;46.910;6.354;2022-11-03T13:37:35;3.00;2.25;2.00
76101;PMS7003;64830;46.910;6.354;2022-11-03T13:40:01;4.00;2.75;2.00
76101;PMS7003;64830;46.910;6.354;2022-11-03T13:42:26;1.50;1.50;1.50
76101;PMS7003;64830;46.910;6.354;2022-11-03T13:44:51;1.00;1.00;1.00
76101;PMS7003;64830;46.910;6.354;2022-11-03T13:47:17;1.00;1.00;1.00
76101;PMS7003;64830;46.910;6.354;2022-11-03T13:49:42;2.00;2.00;1.50
76101;PMS7003;64830;46.910;6.354;2022-11-03T13:52:08;2.00;2.00;1.00
76101;PMS7003;64830;46.910;6.354;2022-11-03T13:54:33;2.00;0.25;0.25
76101;PMS7003;64830;46.910;6.354;2022-11-03T13:56:59;1.00;1.00;1.00
76101;PMS7003;64830;46.910;6.354;2022-11-03T13:59:25;3.25;2.25;1.25
76101;PMS7003;64830;46.910;6.354;2022-11-03T14:01:51;1.50;1.50;1.00
76101;PMS7003;64830;46.910;6.354;2022-11-03T14:04:16;1.00;1.00;1.00
76101;PMS7003;64830;46.910;6.354;2022-11-03T14:06:41;1.00;1.00;1.00
76101;PMS7003;64830;46.910;6.354;2022-11-03T14:09:07;1.50;1.50;1.00
76101;PMS7003;64830;46.910;6.354;2022-11-03T14:11:32;1.50;1.50;1.25
76101;PMS7003;64830;46.910;6.354;2022-11-03T14:14:16;2.25;2.00;2.00
76101;PMS7003;64830;46.910;6.354;2022-11-03T14:16:42;2.50;2.00;1.00
76101;PMS7003;64830;46.910;6.354;2022-11-03T14:19:07;3.50;2.00;1.25
76101;PMS7003;64830;46.910;6.354;2022-11-03T14:21:32;1.00;1.00;0.00
76101;PMS7003;64830;46.910;6.354;2022-11-03T14:23:58;0.50;0.50;0.00
76101;PMS7003;64830;46.910;6.354;2022-11-03T14:26:23;2.00;2.00;2.00
76101;PMS7003;64830;46.910;6.354;2022-11-03T14:28:48;3.25;2.75;2.50
76101;PMS7003;64830;46.910;6.354;2022-11-03T14:31:14;1.00;1.00;1.00
76101;PMS7003;64830;46.910;6.354;2022-11-03T14:33:39;1.00;1.00;0.00
76101;PMS7003;64830;46.910;6.354;2022-11-03T14:36:05;1.75;1.75;1.00
76101;PMS7003;64830;46.910;6.354;2022-11-03T14:38:30;5.50;1.00;1.00
76101;PMS7003;64830;46.910;6.354;2022-11-03T14:40:55;1.00;1.00;1.00
76101;PMS7003;64830;46.910;6.354;2022-11-03T14:43:39;0.00;0.00;0.00
76101;PMS7003;64830;46.910;6.354;2022-11-03T14:46:05;2.00;2.00;1.25
76101;PMS7003;64830;46.910;6.354;2022-11-03T14:48:30;1.00;1.00;1.00
76101;PMS7003;64830;46.910;6.354;2022-11-03T14:50:55;0.50;0.50;0.00
76101;PMS7003;64830;46.910;6.354;2022-11-03T14:53:21;0.00;0.00;0.00
76101;PMS7003;64830;46.910;6.354;2022-11-03T14:55:46;1.75;1.00;0.00
76101;PMS7003;64830;46.910;6.354;2022-11-03T14:58:11;1.00;1.00;1.00
76101;PMS7003;64830;46.910;6.354;2022-11-03T15:00:37;3.00;1.75;1.00
76101;PMS7003;64830;46.910;6.354;2022-11-03T15:03:02;2.25;2.25;2.00
76101;PMS7003;64830;46.910;6.354;2022-11-03T15:05:28;1.00;1.00;1.00
76101;PMS7003;64830;46.910;6.354;2022-11-03T15:08:08;4.00;2.00;2.00
76101;PMS7003;64830;46.910;6.354;2022-11-03T15:10:43;1.25;1.25;1.00
76101;PMS7003;64830;46.910;6.354;2022-11-03T15:13:09;2.75;2.75;2.50
76101;PMS7003;64830;46.910;6.354;2022-11-03T15:15:34;3.00;3.00;1.75
76101;PMS7003;64830;46.910;6.354;2022-11-03T15:18:01;1.00;1.00;0.00
76101;PMS7003;64830;46.910;6.354;2022-11-03T15:20:27;3.00;2.00;1.25
76101;PMS7003;64830;46.910;6.354;2022-11-03T15:22:52;1.00;1.00;1.00
76101;PMS7003;64830;46.910;6.354;2022-11-03T15:25:18;1.00;1.00;1.00
76101;PMS7003;64830;46.910;6.354;2022-11-03T15:27:43;1.00;1.00;1.00
76101;PMS7003;64830;46.910;6.354;2022-11-03T15:30:09;0.75;0.75;0.75
76101;PMS7003;64830;46.910;6.354;2022-11-03T15:32:35;2.00;2.00;1.00
76101;PMS7003;64830;46.910;6.354;2022-11-03T15:35:00;1.00;1.00;0.00
76101;PMS7003;64830;46.910;6.354;2022-11-03T15:37:26;1.00;0.25;0.00
76101;PMS7003;64830;46.910;6.354;2022-11-03T15:39:51;1.00;1.00;1.00
76101;PMS7003;64830;46.910;6.354;2022-11-03T15:42:17;1.00;1.00;0.00
76101;PMS7003;64830;46.910;6.354;2022-11-03T15:44:42;0.50;0.50;0.50
76101;PMS7003;64830;46.910;6.354;2022-11-03T15:47:08;0.00;0.00;0.00